Time;durP1;ratioP1;P1;durP2;ratioP2;P2;SDS_P1;SDS_P2;PMS_P1;PMS_P2;Temp;Humidity;BMP_temperature;BMP_pressure;BME280_temperature;BME280_humidity;BME280_pressure;Samples;Min_cycle;Max_cycle;Signal;HPM_P1;HPM_P2
2023/07/24 00:02:17;;;;;;;17.10;9.45;;;;;;;23.21;69.45;100583.22;4770146;30;20052;-85
2023/07/24 00:05:13;;;;;;;18.98;10.32;;;;;;;23.25;69.04;100583.97;4769603;30;20047;-85
2023/07/24 00:08:07;;;;;;;20.73;9.60;;;;;;;23.34;68.42;100582.34;4775991;30;20052;-85
2023/07/24 00:10:59;;;;;;;20.10;9.30;;;;;;;23.22;68.93;100582.00;4776412;30;20050;-85
2023/07/24 00:13:53;;;;;;;20.60;10.40;;;;;;;23.20;69.47;100574.09;4770583;30;20059;-85
2023/07/24 00:16:48;;;;;;;21.98;10.40;;;;;;;23.07;70.96;100569.38;4778934;30;20043;-85
2023/07/24 00:19:40;;;;;;;15.80;9.32;;;;;;;23.13;71.32;100567.78;4776062;29;20047;-84
2023/07/24 00:22:35;;;;;;;20.52;9.73;;;;;;;22.95;72.49;100568.66;4770096;30;20417;-85
2023/07/24 00:25:30;;;;;;;21.75;9.80;;;;;;;22.97;73.40;100566.25;4770770;30;20046;-84
2023/07/24 00:28:24;;;;;;;19.88;9.88;;;;;;;22.96;73.95;100552.78;4775637;29;20058;-85
2023/07/24 00:31:19;;;;;;;17.27;10.75;;;;;;;22.93;74.35;100551.63;4764783;30;20047;-84
2023/07/24 00:34:14;;;;;;;18.25;11.60;;;;;;;22.91;74.78;100553.22;4761466;30;20051;-84
2023/07/24 00:37:09;;;;;;;15.50;10.68;;;;;;;22.83;75.06;100549.69;4776859;30;20044;-83
2023/07/24 00:40:03;;;;;;;17.42;9.73;;;;;;;22.65;76.56;100548.16;4764158;30;20047;-84
2023/07/24 00:42:58;;;;;;;20.48;11.32;;;;;;;22.72;76.16;100539.81;4789080;29;20731;-84
2023/07/24 00:45:53;;;;;;;18.77;10.60;;;;;;;22.81;75.48;100534.63;4771455;30;20044;-84
2023/07/24 00:48:48;;;;;;;17.27;9.68;;;;;;;22.72;75.81;100537.06;4776347;30;20047;-83
2023/07/24 00:51:44;;;;;;;17.85;10.48;;;;;;;22.64;76.18;100536.28;4770351;30;20553;-85
2023/07/24 00:54:40;;;;;;;17.52;10.15;;;;;;;22.68;75.45;100525.94;4769494;30;20044;-84
2023/07/24 00:57:35;;;;;;;18.45;9.77;;;;;;;22.69;75.45;100530.31;4762851;30;20043;-84
2023/07/24 01:00:27;;;;;;;22.50;10.57;;;;;;;22.75;75.10;100528.75;4763237;30;20064;-84
2023/07/24 01:03:22;;;;;;;17.98;10.23;;;;;;;22.56;75.29;100532.72;4774200;30;20088;-85
2023/07/24 01:06:17;;;;;;;19.17;9.57;;;;;;;22.49;75.92;100532.75;4775339;30;20051;-85
2023/07/24 01:09:11;;;;;;;15.73;10.00;;;;;;;22.45;75.77;100531.19;4772395;30;20058;-84
2023/07/24 01:12:30;;;;;;;18.17;9.77;;;;;;;22.53;75.48;100532.72;4774990;30;20043;-84
2023/07/24 01:15:40;;;;;;;15.00;10.15;;;;;;;22.42;75.37;100529.19;4775477;30;20070;-85
2023/07/24 01:18:36;;;;;;;18.50;10.38;;;;;;;22.40;75.18;100531.59;4774724;30;20514;-85
2023/07/24 01:21:33;;;;;;;21.40;10.38;;;;;;;22.38;75.47;100528.41;4775152;30;20047;-85
2023/07/24 01:24:35;;;;;;;17.13;10.07;;;;;;;22.45;75.12;100529.19;4771625;30;20044;-85
2023/07/24 01:27:30;;;;;;;15.23;8.80;;;;;;;22.38;75.16;100528.41;4775025;30;20430;-85
2023/07/24 01:30:25;;;;;;;18.20;9.73;;;;;;;22.35;74.92;100520.91;4763715;30;20063;-83
2023/07/24 01:33:17;;;;;;;17.67;10.20;;;;;;;22.30;74.04;100515.78;4771605;30;20055;-84
2023/07/24 01:36:12;;;;;;;14.82;9.27;;;;;;;22.30;73.66;100515.78;4773968;30;20413;-84
2023/07/24 01:39:06;;;;;;;15.93;9.77;;;;;;;22.23;74.19;100519.34;4770736;30;20058;-84
2023/07/24 01:41:59;;;;;;;;;;;;;;;22.08;74.38;100506.72;4764253;30;20061;-84
2023/07/24 01:44:58;;;;;;;23.15;10.70;;;;;;;22.04;74.30;100503.16;4770864;30;19922;-84
2023/07/24 01:47:53;;;;;;;17.70;9.40;;;;;;;22.17;74.19;100515.41;4768886;30;20047;-81
2023/07/24 01:50:47;;;;;;;610.95;137.38;;;;;;;22.18;75.79;100508.69;4773489;30;20055;-81
2023/07/24 01:53:42;;;;;;;54.38;18.80;;;;;;;22.87;74.21;100508.06;4771926;30;20040;-83
2023/07/24 01:56:37;;;;;;;18.65;9.32;;;;;;;23.03;71.49;100511.94;4774508;30;20048;-83
2023/07/24 01:59:31;;;;;;;17.48;8.90;;;;;;;23.35;70.22;100514.53;4785318;30;20055;-81
2023/07/24 02:02:24;;;;;;;15.70;9.38;;;;;;;23.55;68.91;100517.59;4758145;30;20615;-83
2023/07/24 02:05:18;;;;;;;21.30;8.88;;;;;;;23.59;68.99;100523.91;4757521;30;20070;-79
2023/07/24 02:08:12;;;;;;;17.67;9.80;;;;;;;23.71;68.93;100519.84;4769234;30;20430;-83
2023/07/24 02:11:07;;;;;;;18.00;8.80;;;;;;;23.74;67.82;100513.47;4770210;30;20419;-82
2023/07/24 02:13:59;;;;;;;;;;;;;;;23.69;67.21;100514.72;4774980;30;20054;-83
2023/07/24 02:16:54;;;;;;;16.70;8.80;;;;;;;23.33;69.22;100521.69;4772627;30;19917;-82
2023/07/24 02:19:49;;;;;;;18.15;9.05;;;;;;;23.36;69.41;100526.44;4777293;30;20046;-82
2023/07/24 02:22:41;;;;;;;20.45;9.55;;;;;;;23.40;69.07;100516.09;4775084;30;20060;-82
2023/07/24 02:25:38;;;;;;;19.25;9.57;;;;;;;23.41;68.90;100501.03;4773189;30;20054;-81
2023/07/24 02:28:32;;;;;;;18.30;9.52;;;;;;;23.38;69.15;100482.41;4775140;30;20074;-82
2023/07/24 02:31:27;;;;;;;14.52;8.52;;;;;;;23.35;69.09;100475.69;4773815;30;20054;-82
2023/07/24 02:34:24;;;;;;;15.27;8.77;;;;;;;23.34;68.65;100462.22;4816396;24;21193;-78
2023/07/24 02:37:18;;;;;;;15.35;9.60;;;;;;;23.23;68.51;100458.72;4771669;30;20063;-77
2023/07/24 02:40:10;;;;;;;;;;;;;;;23.33;67.96;100458.66;4772456;30;20059;-76
2023/07/24 02:43:05;;;;;;;15.38;9.23;;;;;;;23.41;67.58;100451.84;4770244;30;20316;-79
2023/07/24 02:46:02;;;;;;;16.77;9.35;;;;;;;23.33;67.94;100430.88;4769902;30;20047;-77
2023/07/24 02:48:54;;;;;;;14.07;8.93;;;;;;;23.43;67.27;100426.44;4755702;30;20047;-78
2023/07/24 02:51:49;;;;;;;20.38;10.32;;;;;;;23.48;67.07;100428.03;4757415;30;20131;-78
2023/07/24 02:54:43;;;;;;;14.30;8.55;;;;;;;23.37;66.48;100420.53;4763254;30;20052;-78
2023/07/24 02:57:38;;;;;;;18.67;9.48;;;;;;;23.29;67.13;100409.91;4788322;29;20050;-78
2023/07/24 03:00:33;;;;;;;18.30;9.05;;;;;;;23.38;66.89;100415.78;4766738;30;20050;-78
2023/07/24 03:03:28;;;;;;;17.40;8.82;;;;;;;23.42;66.64;100420.09;4795917;29;20055;-78
2023/07/24 03:06:22;;;;;;;15.88;9.50;;;;;;;23.46;66.46;100420.13;4770582;30;20060;-78
2023/07/24 03:09:17;;;;;;;20.50;10.55;;;;;;;23.44;65.80;100408.59;4770203;30;20072;-77
2023/07/24 03:12:11;;;;;;;23.25;10.48;;;;;;;23.41;65.85;100406.66;4775164;30;20048;-77
2023/07/24 03:15:06;;;;;;;16.58;8.32;;;;;;;23.35;66.24;100399.97;4771158;30;20043;-78
2023/07/24 03:18:00;;;;;;;15.85;8.68;;;;;;;23.13;66.66;100404.88;4789207;30;20058;-79
2023/07/24 03:20:55;;;;;;;18.60;9.23;;;;;;;23.02;67.78;100416.06;4774608;30;20074;-79
2023/07/24 03:23:49;;;;;;;17.08;8.57;;;;;;;23.23;66.57;100403.22;4771160;30;20054;-79
2023/07/24 03:26:44;;;;;;;17.98;10.32;;;;;;;23.29;65.34;100415.47;4774682;30;20253;-78
2023/07/24 03:29:39;;;;;;;19.85;9.73;;;;;;;23.26;65.24;100414.28;4770629;30;20048;-77
2023/07/24 03:32:33;;;;;;;20.70;9.88;;;;;;;23.24;65.13;100413.13;4771186;30;20071;-78
2023/07/24 03:35:27;;;;;;;16.15;8.18;;;;;;;23.32;64.84;100420.19;4797166;29;20051;-78
2023/07/24 03:38:20;;;;;;;22.88;10.15;;;;;;;23.36;64.58;100440.41;4771005;30;20051;-78
2023/07/24 03:41:12;;;;;;;17.67;9.27;;;;;;;23.30;64.24;100447.56;4770928;30;20044;-78
2023/07/24 03:44:07;;;;;;;14.80;8.70;;;;;;;23.41;64.84;100454.63;4797991;29;20079;-79
2023/07/24 03:47:01;;;;;;;16.55;9.50;;;;;;;23.20;65.73;100459.53;4796803;29;20054;-79
2023/07/24 03:49:56;;;;;;;20.45;9.23;;;;;;;23.00;66.56;100471.16;4771059;30;20059;-78
2023/07/24 03:52:50;;;;;;;15.80;9.48;;;;;;;22.41;69.23;100472.97;4754041;30;20051;-78
2023/07/24 03:55:45;;;;;;;24.30;10.18;;;;;;;21.57;72.60;100458.09;4753841;30;20051;-77
2023/07/24 03:58:39;;;;;;;19.95;10.73;;;;;;;21.69;73.07;100459.66;4752507;30;20044;-77
2023/07/24 04:01:34;;;;;;;20.65;10.88;;;;;;;21.93;71.72;100469.94;4754346;30;20499;-78
2023/07/24 04:04:44;;;;;;;20.48;10.95;;;;;;;21.60;73.61;100475.88;4753634;30;20052;-78
2023/07/24 04:07:36;;;;;;;20.65;10.18;;;;;;;21.33;76.09;100464.41;4777126;30;20052;-79
2023/07/24 04:10:31;;;;;;;22.48;12.45;;;;;;;21.08;78.90;100458.78;4752673;30;20040;-78
2023/07/24 04:13:25;;;;;;;27.60;10.70;;;;;;;21.23;78.60;100463.19;4753826;30;20048;-77
2023/07/24 04:16:20;;;;;;;23.02;11.45;;;;;;;21.61;77.25;100458.09;4778138;29;20040;-77
2023/07/24 04:19:14;;;;;;;14.98;9.18;;;;;;;21.85;76.11;100456.47;4776527;30;20056;-77
2023/07/24 04:22:07;;;;;;;19.35;10.82;;;;;;;21.88;75.59;100470.31;4766248;30;20051;-78
2023/07/24 04:25:01;;;;;;;29.13;11.27;;;;;;;22.00;76.07;100478.22;4754939;30;20048;-79
2023/07/24 04:27:56;;;;;;;17.30;9.43;;;;;;;22.28;75.62;100479.38;4752713;30;20430;-78
2023/07/24 04:30:50;;;;;;;17.92;10.25;;;;;;;22.22;75.12;100478.19;4752881;30;20100;-79
2023/07/24 04:33:45;;;;;;;22.30;11.35;;;;;;;21.94;77.16;100485.34;4752972;30;20499;-78
2023/07/24 04:36:39;;;;;;;25.33;11.38;;;;;;;21.77;78.67;100483.38;4750788;30;20056;-79
2023/07/24 04:39:34;;;;;;;19.08;10.25;;;;;;;21.87;78.94;100471.50;4781808;29;20411;-78
2023/07/24 04:42:29;;;;;;;25.58;12.05;;;;;;;22.15;78.13;100482.56;4759387;30;20418;-79
2023/07/24 04:45:23;;;;;;;25.20;11.00;;;;;;;22.38;75.51;100500.72;4781270;29;20043;-78
2023/07/24 04:48:18;;;;;;;15.70;9.35;;;;;;;22.99;74.11;100507.63;4764054;30;20052;-78
2023/07/24 04:51:12;;;;;;;17.13;9.27;;;;;;;22.94;73.83;100527.47;4769133;30;20059;-78
2023/07/24 04:54:07;;;;;;;14.77;9.68;;;;;;;23.21;73.11;100530.50;4794487;29;20157;-77
2023/07/24 04:57:01;;;;;;;16.23;9.48;;;;;;;23.81;70.67;100542.00;4753532;30;20526;-79
2023/07/24 04:59:56;;;;;;;22.17;9.77;;;;;;;24.38;67.95;100549.81;4776512;30;20064;-76
2023/07/24 05:02:51;;;;;;;19.67;10.60;;;;;;;24.83;65.84;100567.19;4752085;30;20051;-77
2023/07/24 05:05:45;;;;;;;30.70;10.77;;;;;;;25.04;64.99;100588.44;4752775;30;20069;-76
2023/07/24 05:08:37;;;;;;;19.52;10.10;;;;;;;25.02;65.00;100585.28;4782416;29;20052;-76
2023/07/24 05:11:29;;;;;;;18.52;10.95;;;;;;;24.21;66.79;100562.69;4753640;30;20048;-77
2023/07/24 05:14:23;;;;;;;20.08;10.95;;;;;;;24.29;67.33;100505.03;4777070;30;20067;-76
2023/07/24 05:17:18;;;;;;;21.73;11.15;;;;;;;24.21;68.16;100445.19;4768690;30;20048;-78
2023/07/24 05:20:08;;;;;;;28.20;11.80;;;;;;;23.64;71.51;100423.50;4752093;30;20044;-76
2023/07/24 05:23:03;;;;;;;19.45;11.63;;;;;;;22.80;75.91;100459.00;4751801;30;20048;-78
2023/07/24 05:26:06;;;;;;;18.95;11.07;;;;;;;23.32;74.39;100456.25;4751531;30;20040;-79
2023/07/24 05:28:58;;;;;;;29.17;11.98;;;;;;;23.88;71.98;100458.59;4750997;30;20043;-78
2023/07/24 05:31:52;;;;;;;19.38;11.35;;;;;;;24.28;70.13;100465.34;4766430;30;20048;-78
2023/07/24 05:34:47;;;;;;;21.73;11.70;;;;;;;24.48;69.19;100467.50;4789171;29;20044;-81
2023/07/24 05:37:42;;;;;;;19.33;11.07;;;;;;;24.56;68.88;100475.34;4775957;29;20068;-78
2023/07/24 05:40:36;;;;;;;20.90;11.93;;;;;;;24.64;68.93;100453.78;4765944;30;20415;-79
2023/07/24 05:43:32;;;;;;;29.15;10.32;;;;;;;24.58;69.68;100461.78;4761483;30;20036;-79
2023/07/24 05:46:24;;;;;;;20.73;11.05;;;;;;;24.53;70.01;100476.16;4761233;30;20047;-79
2023/07/24 05:49:18;;;;;;;21.52;11.02;;;;;;;24.76;69.17;100497.72;4757265;30;20040;-78
2023/07/24 05:52:12;;;;;;;24.38;12.05;;;;;;;24.88;68.94;100499.22;4765202;30;20052;-78
2023/07/24 05:55:05;;;;;;;;;;;;;;;24.98;68.63;100495.50;4766278;30;20526;-79
2023/07/24 05:57:59;;;;;;;25.13;11.18;;;;;;;25.01;68.21;100462.03;4796878;29;19918;-78
2023/07/24 06:00:54;;;;;;;17.50;10.15;;;;;;;25.07;68.21;100456.81;4768843;30;20048;-79
2023/07/24 06:03:48;;;;;;;19.25;11.23;;;;;;;25.17;68.04;100452.28;4791883;29;20119;-76
2023/07/24 06:06:40;;;;;;;17.15;10.35;;;;;;;25.23;67.69;100409.63;4758131;30;20044;-78
2023/07/24 06:09:32;;;;;;;21.08;10.40;;;;;;;25.25;68.32;100384.16;4772404;30;20044;-79
2023/07/24 06:12:27;;;;;;;22.83;11.23;;;;;;;25.26;67.29;100367.03;4763989;30;20048;-79
2023/07/24 06:15:21;;;;;;;24.08;11.07;;;;;;;25.29;67.41;100362.63;4772966;30;20039;-80
2023/07/24 06:18:16;;;;;;;21.67;11.10;;;;;;;25.28;67.82;100356.25;4773598;30;20048;-78
2023/07/24 06:21:08;;;;;;;20.30;10.88;;;;;;;25.25;68.17;100368.22;4798439;29;20055;-77
2023/07/24 06:24:00;;;;;;;19.48;11.48;;;;;;;25.10;68.91;100381.59;4768488;30;20040;-77
2023/07/24 06:26:55;;;;;;;21.00;9.75;;;;;;;25.04;69.41;100376.97;4770255;30;20051;-79
2023/07/24 06:29:47;;;;;;;20.83;10.77;;;;;;;25.11;69.17;100379.59;4773343;30;20422;-79
2023/07/24 06:32:39;;;;;;;27.50;10.20;;;;;;;25.19;69.07;100386.66;4776512;30;20051;-78
2023/07/24 06:35:34;;;;;;;17.17;9.93;;;;;;;25.40;68.27;100405.75;4774488;30;20043;-78
2023/07/24 06:38:26;;;;;;;16.67;9.60;;;;;;;25.79;66.89;100434.97;4773150;30;20062;-80
2023/07/24 06:41:21;;;;;;;24.10;9.88;;;;;;;26.08;64.91;100433.22;4758025;30;20426;-78
2023/07/24 06:44:15;;;;;;;19.13;9.93;;;;;;;26.20;63.69;100437.38;4755463;30;20431;-79
2023/07/24 06:47:10;;;;;;;24.27;11.35;;;;;;;26.06;62.89;100404.97;4750606;30;20571;-78
2023/07/24 06:50:04;;;;;;;21.05;10.82;;;;;;;26.25;61.26;100393.09;4762946;30;20318;-79
2023/07/24 06:52:57;;;;;;;;;;;;;;;26.17;61.59;100411.13;4776775;29;20040;-77
2023/07/24 06:55:51;;;;;;;20.80;12.02;;;;;;;26.33;61.63;100411.22;4751484;30;19918;-77
2023/07/24 06:58:43;;;;;;;17.73;10.68;;;;;;;26.39;61.73;100403.94;4744990;30;20040;-79
2023/07/24 07:01:38;;;;;;;24.15;11.02;;;;;;;25.65;64.97;100408.13;4750892;30;20044;-79
2023/07/24 07:04:32;;;;;;;32.55;11.38;;;;;;;25.98;64.14;100403.56;4755749;30;20044;-77
2023/07/24 07:07:27;;;;;;;19.27;9.02;;;;;;;26.09;64.08;100420.06;4758613;30;20051;-81
2023/07/24 07:10:19;;;;;;;;;;;;;;;26.11;64.56;100437.91;4764900;30;20063;-80
2023/07/24 07:13:13;;;;;;;21.00;10.38;;;;;;;26.13;66.46;100441.06;4783055;29;19945;-78
2023/07/24 07:16:08;;;;;;;16.77;9.90;;;;;;;26.02;67.74;100443.28;4772312;30;20051;-79
2023/07/24 07:19:03;;;;;;;26.45;11.32;;;;;;;26.27;67.63;100429.66;4781053;29;20171;-79
2023/07/24 07:21:55;;;;;;;;;;;;;;;26.56;66.58;100423.50;4783870;29;20044;-76
2023/07/24 07:24:47;;;;;;;18.95;10.25;;;;;;;26.60;67.58;100452.13;4778836;29;19921;-78
2023/07/24 07:27:41;;;;;;;14.13;8.27;;;;;;;26.54;66.60;100462.19;4754118;30;20048;-77
2023/07/24 07:30:36;;;;;;;16.65;8.13;;;;;;;26.66;65.54;100461.56;4755042;30;20075;-78
2023/07/24 07:33:30;;;;;;;14.45;7.63;;;;;;;26.91;64.01;100428.34;4778989;29;20520;-78
2023/07/24 07:36:22;;;;;;;;;;;;;;;27.17;62.88;100435.66;4760836;30;20059;-76
2023/07/24 07:39:17;;;;;;;13.73;7.13;;;;;;;27.29;63.07;100436.22;4769217;29;19935;-78
2023/07/24 07:42:11;;;;;;;12.98;6.88;;;;;;;27.30;63.97;100407.84;4780449;29;20051;-78
2023/07/24 07:45:06;;;;;;;12.07;7.03;;;;;;;27.19;64.11;100380.19;4749704;30;20047;-77
2023/07/24 07:47:58;;;;;;;15.75;7.43;;;;;;;27.15;64.64;100399.03;4755640;30;20419;-78
2023/07/24 07:50:54;;;;;;;13.90;8.70;;;;;;;27.10;64.67;100390.41;4769502;29;20047;-79
2023/07/24 07:53:48;;;;;;;17.00;7.32;;;;;;;27.18;64.85;100373.03;4771634;29;20043;-78
2023/07/24 07:56:43;;;;;;;16.10;6.43;;;;;;;27.42;63.40;100333.75;4753601;30;20047;-78
2023/07/24 07:59:35;;;;;;;;;;;;;;;27.39;63.30;100313.06;4773617;29;20051;-77
2023/07/24 08:02:30;;;;;;;13.45;7.03;;;;;;;27.57;62.24;100302.22;4766852;29;19922;-78
2023/07/24 08:05:24;;;;;;;11.70;6.45;;;;;;;27.60;61.70;100306.13;4766450;29;20431;-77
2023/07/24 08:08:19;;;;;;;25.35;6.82;;;;;;;27.47;62.82;100308.88;4748576;30;20047;-77
2023/07/24 08:11:13;;;;;;;15.57;7.25;;;;;;;27.34;63.45;100299.63;4777967;29;20078;-78
2023/07/24 08:14:05;;;;;;;;;;;;;;;27.33;62.53;100283.31;4761818;30;20051;-75
2023/07/24 08:17:00;;;;;;;12.60;6.57;;;;;;;27.31;63.06;100266.22;4793861;29;19918;-76
2023/07/24 08:19:54;;;;;;;16.88;7.75;;;;;;;27.12;63.34;100279.84;4770265;30;20051;-77
2023/07/24 08:22:44;;;;;;;;;;;;;;;27.35;62.97;100280.88;4792472;29;20058;-75
2023/07/24 08:25:38;;;;;;;12.63;6.80;;;;;;;27.50;63.03;100285.66;4781503;29;20304;-77
2023/07/24 08:28:33;;;;;;;13.50;6.95;;;;;;;27.67;62.56;100296.78;4777566;29;20070;-77
2023/07/24 08:31:25;;;;;;;;;;;;;;;27.71;61.70;100340.16;4751692;30;20069;-75
2023/07/24 08:34:42;;;;;;;13.32;6.82;;;;;;;27.62;61.67;100357.56;4777050;24;19918;31
2023/07/24 08:37:37;;;;;;;11.45;6.60;;;;;;;27.65;61.75;100344.72;4758953;30;20063;-80
2023/07/24 08:40:26;;;;;;;14.98;7.80;;;;;;;27.69;61.31;100347.41;4761729;30;20051;-79
2023/07/24 08:43:21;;;;;;;15.48;6.05;;;;;;;27.71;61.30;100353.34;4760992;30;20063;-79
2023/07/24 08:46:14;;;;;;;185.77;23.90;;;;;;;27.91;61.24;100357.56;4734623;30;20064;-79
2023/07/24 08:49:13;;;;;;;81.28;16.08;;;;;;;28.02;60.50;100366.44;4742249;30;20048;-79
2023/07/24 08:52:08;;;;;;;17.58;7.70;;;;;;;28.02;61.10;100380.41;4742276;30;20431;-79
2023/07/24 08:55:04;;;;;;;13.32;6.55;;;;;;;27.99;59.98;100380.50;4743123;30;20560;-79
2023/07/24 08:57:56;;;;;;;26.15;7.93;;;;;;;27.99;59.95;100384.06;4753608;30;20048;-79
2023/07/24 09:00:51;;;;;;;15.57;6.78;;;;;;;28.10;59.61;100386.56;4740005;30;20051;-79
2023/07/24 09:03:45;;;;;;;13.15;6.88;;;;;;;28.12;59.80;100389.75;4751387;30;20529;-79
2023/07/24 09:06:37;;;;;;;;;;;;;;;28.10;59.35;100386.56;4772152;30;20048;-79
2023/07/24 09:09:33;;;;;;;9.68;6.15;;;;;;;28.12;58.35;100383.38;4761935;30;20292;-79
2023/07/24 09:12:28;;;;;;;15.35;6.88;;;;;;;28.11;58.76;100388.16;4762083;30;20067;-79
2023/07/24 09:15:23;;;;;;;10.88;5.78;;;;;;;28.04;58.17;100400.31;4764236;30;20051;-79
2023/07/24 09:18:18;;;;;;;11.93;6.38;;;;;;;28.20;57.98;100421.88;4761918;30;20051;-79
2023/07/24 09:21:13;;;;;;;13.77;6.50;;;;;;;28.32;57.66;100439.94;4761305;30;20055;-79
2023/07/24 09:24:17;;;;;;;13.10;6.43;;;;;;;28.40;57.64;100455.25;4760535;30;20059;-79
2023/07/24 09:27:10;;;;;;;13.48;6.28;;;;;;;28.49;57.78;100449.81;4761027;30;20063;-79
2023/07/24 09:30:13;;;;;;;12.98;5.82;;;;;;;28.58;57.06;100469.53;4761108;30;20059;-79
2023/07/24 09:33:05;;;;;;;10.52;6.18;;;;;;;28.77;56.07;100482.59;4760710;30;20059;-79
2023/07/24 09:36:07;;;;;;;10.85;5.97;;;;;;;28.83;55.35;100502.41;4762340;30;20067;-79
2023/07/24 09:39:06;;;;;;;11.85;6.13;;;;;;;28.91;55.20;100526.16;4761995;30;20055;-79
2023/07/24 09:42:05;;;;;;;10.57;6.47;;;;;;;28.85;56.23;100542.72;4762336;30;20067;-79
2023/07/24 09:44:59;;;;;;;20.75;6.97;;;;;;;28.68;55.94;100535.63;4756489;30;20055;-80
2023/07/24 09:47:56;;;;;;;9.50;6.07;;;;;;;28.72;54.67;100516.72;4757530;30;20059;-79
2023/07/24 09:50:54;;;;;;;14.00;6.60;;;;;;;28.71;54.97;100477.94;4763336;30;20683;-79
2023/07/24 09:53:58;;;;;;;14.10;6.60;;;;;;;28.64;54.66;100461.38;4761101;30;20052;-79
2023/07/24 09:56:54;;;;;;;12.43;6.53;;;;;;;28.62;55.16;100433.03;4761167;30;20059;-79
2023/07/24 09:59:48;;;;;;;7.88;5.35;;;;;;;28.59;56.38;100406.75;4773080;30;20051;-79
2023/07/24 10:02:41;;;;;;;10.40;6.43;;;;;;;28.53;57.79;100388.94;4760338;30;20067;-79
2023/07/24 10:05:36;;;;;;;14.30;6.60;;;;;;;28.58;56.51;100357.59;4757385;30;20052;-79
2023/07/24 10:08:32;;;;;;;11.65;6.40;;;;;;;28.58;56.20;100306.44;4739819;30;20059;-80
2023/07/24 10:11:25;;;;;;;13.50;6.53;;;;;;;28.68;54.29;100306.13;4749283;30;20041;-79
2023/07/24 10:14:17;;;;;;;10.10;6.13;;;;;;;28.72;55.77;100278.81;4750402;30;20059;-79
2023/07/24 10:17:12;;;;;;;13.52;6.10;;;;;;;28.67;53.66;100286.97;4754726;30;20067;-79
2023/07/24 10:20:02;;;;;;;;;;;;;;;28.71;54.86;100293.22;4773488;30;20067;-80
2023/07/24 10:22:57;;;;;;;17.45;5.93;;;;;;;28.57;55.41;100288.88;4738014;30;19926;-79
2023/07/24 10:25:52;;;;;;;;;;;;;;;28.61;56.54;100274.75;4748407;30;20052;-79
2023/07/24 10:28:44;;;;;;;;;;;;;;;28.60;56.96;100273.97;4752389;30;19922;-79
2023/07/24 10:31:38;;;;;;;13.52;6.72;;;;;;;28.55;56.81;100290.56;4744353;30;19918;-79
2023/07/24 10:34:40;;;;;;;9.88;5.70;;;;;;;28.43;56.29;100258.56;4754175;30;20043;-79
2023/07/24 10:37:36;;;;;;;9.95;5.35;;;;;;;28.41;57.00;100253.41;4776386;30;20137;-80
2023/07/24 10:40:30;;;;;;;12.30;6.45;;;;;;;28.37;56.37;100291.91;4768324;30;20055;-79
2023/07/24 10:43:25;;;;;;;13.80;6.43;;;;;;;28.31;56.93;100267.72;4764925;30;20058;-79
2023/07/24 10:46:19;;;;;;;10.20;5.82;;;;;;;28.29;57.78;100245.03;4764998;30;20059;-80
2023/07/24 10:49:11;;;;;;;16.55;6.32;;;;;;;28.21;57.30;100176.56;4746364;30;20523;-80
2023/07/24 10:52:03;;;;;;;9.23;5.75;;;;;;;28.20;57.55;100114.25;4747206;30;20059;-80
2023/07/24 10:54:58;;;;;;;14.13;7.22;;;;;;;28.19;56.95;100086.75;4740053;30;20052;-80
2023/07/24 10:57:54;;;;;;;11.95;6.20;;;;;;;28.16;57.53;100155.53;4739867;30;20057;-79
2023/07/24 11:00:52;;;;;;;17.98;6.68;;;;;;;28.26;56.87;100212.34;4752102;30;20069;-80
2023/07/24 11:03:44;;;;;;;11.50;6.40;;;;;;;28.41;56.92;100259.00;4750923;30;20048;-79
2023/07/24 11:06:37;;;;;;;11.90;6.72;;;;;;;28.31;57.18;100296.47;4753131;30;20137;-80
2023/07/24 11:09:38;;;;;;;11.57;5.68;;;;;;;28.39;57.68;100311.81;4745350;30;20060;-80
2023/07/24 11:12:33;;;;;;;16.98;6.32;;;;;;;28.37;58.20;100322.69;4753616;30;20418;-80
2023/07/24 11:15:29;;;;;;;11.90;6.30;;;;;;;28.28;56.33;100286.19;4751780;30;20063;-80
2023/07/24 11:18:24;;;;;;;10.48;6.55;;;;;;;28.13;56.14;100136.09;4755877;30;20574;-80
2023/07/24 11:21:18;;;;;;;11.90;6.70;;;;;;;28.06;57.31;100146.22;4751814;30;20052;-79
2023/07/24 11:24:11;;;;;;;13.30;6.13;;;;;;;28.05;57.05;100197.78;4756505;30;20125;-79
2023/07/24 11:27:10;;;;;;;12.93;6.15;;;;;;;28.05;56.49;100225.75;4766067;30;20549;-80
2023/07/24 11:30:04;;;;;;;13.57;5.72;;;;;;;28.05;57.47;100275.28;4755311;30;20059;-79
2023/07/24 11:32:59;;;;;;;9.88;6.50;;;;;;;28.04;58.20;100243.75;4767804;30;20047;-80
2023/07/24 11:35:51;;;;;;;;;;;;;;;28.02;58.35;100240.63;4755717;30;20542;-81
2023/07/24 11:38:43;;;;;;;19.17;6.95;;;;;;;28.07;59.12;100270.03;4749240;30;19922;-80
2023/07/24 11:41:37;;;;;;;8.85;5.75;;;;;;;28.02;60.40;100321.69;4754696;30;20055;-81
2023/07/24 11:44:33;;;;;;;13.63;6.38;;;;;;;28.01;60.05;100364.06;4754212;30;20047;-80
2023/07/24 11:47:25;;;;;;;13.68;6.60;;;;;;;28.05;59.49;100370.34;4762495;30;20055;-80
2023/07/24 11:50:20;;;;;;;11.00;5.78;;;;;;;28.05;61.23;100379.50;4762942;30;20055;-80
2023/07/24 11:53:26;;;;;;;14.63;6.93;;;;;;;28.17;61.19;100354.88;4760037;30;20423;-80
2023/07/24 11:56:21;;;;;;;10.93;5.63;;;;;;;28.13;61.73;100327.00;4762005;30;20044;-80
2023/07/24 11:59:16;;;;;;;14.15;6.60;;;;;;;28.22;61.84;100306.78;4765322;30;20063;-80
2023/07/24 12:02:13;;;;;;;15.77;6.63;;;;;;;28.39;59.81;100277.47;4760760;30;20059;-80
2023/07/24 12:05:12;;;;;;;11.52;6.75;;;;;;;28.42;60.22;100243.00;4743753;30;20048;-80
2023/07/24 12:08:06;;;;;;;12.77;6.10;;;;;;;28.48;58.85;100204.84;4747095;30;20064;-80
2023/07/24 12:11:01;;;;;;;15.20;6.18;;;;;;;28.74;57.03;100169.22;4743377;30;20069;-80
2023/07/24 12:13:53;;;;;;;;;;;;;;;28.83;56.34;100150.50;4744631;30;20065;-80
2023/07/24 12:16:45;;;;;;;14.57;6.88;;;;;;;28.83;57.10;100122.50;4745703;30;19918;-80
2023/07/24 12:19:39;;;;;;;12.00;6.22;;;;;;;28.96;56.18;100113.25;4744470;30;20060;-80
2023/07/24 12:22:31;;;;;;;13.25;6.30;;;;;;;28.97;57.05;100106.41;4743794;30;20055;-80
2023/07/24 12:25:26;;;;;;;14.00;6.78;;;;;;;28.90;56.13;100088.63;4746054;30;20134;-80
2023/07/24 12:28:21;;;;;;;10.80;5.32;;;;;;;28.98;55.33;100083.56;4746823;30;20068;-80
2023/07/24 12:31:16;;;;;;;10.05;5.75;;;;;;;28.79;54.07;100053.88;4742211;30;20055;-80
2023/07/24 12:34:08;;;;;;;14.65;6.60;;;;;;;28.97;55.01;100054.00;4753169;30;20055;-80
2023/07/24 12:37:02;;;;;;;11.20;6.05;;;;;;;28.95;54.56;100069.69;4732608;30;20063;-80
2023/07/24 12:39:54;;;;;;;;;;;;;;;29.01;56.71;100088.25;4740615;30;20063;-80
2023/07/24 12:42:46;;;;;;;16.60;8.10;;;;;;;28.80;57.57;100089.03;4746198;30;20300;-81
2023/07/24 12:45:41;;;;;;;18.25;6.95;;;;;;;28.98;57.48;100113.56;4731083;30;20051;-82
2023/07/24 12:48:36;;;;;;;17.13;7.32;;;;;;;28.87;57.01;100103.53;4741858;30;20064;-80
2023/07/24 12:51:28;;;;;;;12.68;6.68;;;;;;;28.73;58.76;100094.88;4740983;30;20048;-80
2023/07/24 12:54:23;;;;;;;14.13;6.75;;;;;;;28.70;58.52;100067.78;4741171;30;20044;-80
2023/07/24 12:57:15;;;;;;;13.90;7.63;;;;;;;28.71;59.49;100025.34;4740238;30;20056;-81
2023/07/24 13:00:10;;;;;;;12.88;7.75;;;;;;;28.92;59.58;100024.56;4741232;30;20067;-80
2023/07/24 13:03:05;;;;;;;12.52;7.20;;;;;;;28.92;59.61;100018.19;4740834;30;20056;-80
2023/07/24 13:05:57;;;;;;;;;;;;;;;28.87;59.30;100030.75;4741275;30;20347;-80
2023/07/24 13:08:51;;;;;;;11.48;6.85;;;;;;;29.16;57.59;100060.47;4740497;30;20393;-80
2023/07/24 13:11:46;;;;;;;14.10;7.15;;;;;;;29.37;56.55;100143.75;4742650;30;20056;-81
2023/07/24 13:14:41;;;;;;;12.38;7.53;;;;;;;29.43;57.87;100208.38;4728880;30;20118;-81
2023/07/24 13:17:36;;;;;;;15.60;7.50;;;;;;;29.29;57.27;100290.91;4725855;30;20055;-81
2023/07/24 13:20:29;;;;;;;15.95;6.60;;;;;;;29.15;57.86;100355.81;4734359;30;20052;-81
2023/07/24 13:23:23;;;;;;;11.70;6.13;;;;;;;29.17;58.31;100393.31;4742896;30;20051;-81
2023/07/24 13:26:18;;;;;;;15.77;7.00;;;;;;;29.12;57.51;100396.69;4755135;30;20442;-81